首页
METAR-TAF:

METAR-TAF

机场 :

克拉斯诺达尔, 俄罗斯

纬度: 45-02N, 经度: 039-09E, 海拔: 33米

当前天气观测

该预报发布于24分钟前的19:30 UTC
风速2节,风向东南
温度 10°C
湿度 32%
气压 1008 hPa
能见度10公里或以上
1500米以下无云,无积雨云

METAR: URKK 261930Z 13001MPS CAVOK 10/M06 Q1008 R23L/CLRD70 NOSIG RMK QFE753

时间: 23:54 (19:54 UTC)

预报

该预报发布于2小时和59分钟前的16:55 UTC
预报有效从26日的 18点(UTC)到 27日的 18点(UTC)
风速16节,风向南转南东,有时为27节阵风
能见度10公里或以上
散云层高于3000英尺
短暂存在
从 27日的 03点(UTC)到 27日的 18点(UTC)
风速25节,风向,有时为39节阵风

TAF: URKK 261655Z 2618/2718 15008G14MPS 9999 SCT030 TEMPO 2703/2718 18013G20MPS

超过4000个机场的气象观测和天气预报(METAR&TAF报告)。

可查询的气象台以黄色和红色小点在地图上表示。

将鼠标移到小点上方,可查看气象台名称。

然后点击查看天气观测和预报。

如需切换地图:点击带黑十字的绿色按钮放大地图;点击带横线的绿色按钮缩小地图;或者点击绿色箭头查看邻近地区的地图。


METAR-TAF: